Time;durP1;ratioP1;P1;durP2;ratioP2;P2;SDS_P1;SDS_P2;PMS_P1;PMS_P2;Temp;Humidity;BMP_temperature;BMP_pressure;BME280_temperature;BME280_humidity;BME280_pressure;Samples;Min_cycle;Max_cycle;Signal;HPM_P1;HPM_P2
2023/04/04 00:00:14;;;;;;;8.23;2.58;;;;;;;;;;5067574;28;20044;-80
2023/04/04 00:02:40;;;;;;;5.65;2.55;;;;;;;;;;5037612;28;20033;-80
2023/04/04 00:05:07;;;;;;;7.38;2.83;;;;;;;;;;5034228;28;20494;-80
2023/04/04 00:07:33;;;;;;;6.45;2.88;;;;;;;;;;5048932;28;20048;-80
2023/04/04 00:09:59;;;;;;;7.63;2.60;;;;;;;;;;5050213;28;20068;-80
2023/04/04 00:12:26;;;;;;;7.80;2.92;;;;;;;;;;5051539;28;20082;-80
2023/04/04 00:14:52;;;;;;;6.03;2.95;;;;;;;;;;5051180;28;20508;-80
2023/04/04 00:17:18;;;;;;;6.90;3.13;;;;;;;;;;5051801;28;20044;-80
2023/04/04 00:19:45;;;;;;;4.63;2.40;;;;;;;;;;5067132;28;20532;-80
2023/04/04 00:22:12;;;;;;;4.85;2.70;;;;;;;;;;5051742;28;20120;-80
2023/04/04 00:24:38;;;;;;;6.28;2.55;;;;;;;;;;5050245;28;20047;-80
2023/04/04 00:27:04;;;;;;;6.35;2.65;;;;;;;;;;5050319;28;20378;-80
2023/04/04 00:29:33;;;;;;;7.68;2.80;;;;;;;;;;5053711;28;20056;-80
2023/04/04 00:31:59;;;;;;;6.18;2.58;;;;;;;;;;5054959;28;20045;-80
2023/04/04 00:34:25;;;;;;;7.63;3.08;;;;;;;;;;5037572;28;20037;-80
2023/04/04 00:36:52;;;;;;;6.88;2.75;;;;;;;;;;5054948;28;20490;-80
2023/04/04 00:39:18;;;;;;;6.05;3.00;;;;;;;;;;5054842;28;20053;-80
2023/04/04 00:41:45;;;;;;;8.68;3.00;;;;;;;;;;5058004;28;20052;-80
2023/04/04 00:44:11;;;;;;;5.93;2.70;;;;;;;;;;5063541;28;20041;-80
2023/04/04 00:46:37;;;;;;;6.10;2.85;;;;;;;;;;5055262;28;20395;-80
2023/04/04 00:49:03;;;;;;;5.97;2.75;;;;;;;;;;5053350;28;20045;-80
2023/04/04 00:51:29;;;;;;;7.60;3.33;;;;;;;;;;5053634;28;20048;-80
2023/04/04 00:53:55;;;;;;;7.35;3.65;;;;;;;;;;5053437;28;20091;-80
2023/04/04 00:56:22;;;;;;;6.38;2.97;;;;;;;;;;5055148;28;20037;-80
2023/04/04 00:58:48;;;;;;;8.45;3.08;;;;;;;;;;5054279;28;20049;-80
2023/04/04 01:01:16;;;;;;;8.43;3.50;;;;;;;;;;5045499;28;20059;-80
2023/04/04 01:03:44;;;;;;;5.20;2.60;;;;;;;;;;5050477;28;20056;-82
2023/04/04 01:06:10;;;;;;;6.75;2.78;;;;;;;;;;5054618;28;20055;-81
2023/04/04 01:08:37;;;;;;;5.47;2.65;;;;;;;;;;5053203;28;20131;-81
2023/04/04 01:11:03;;;;;;;8.75;3.17;;;;;;;;;;5053162;28;20099;-81
2023/04/04 01:13:30;;;;;;;6.15;2.90;;;;;;;;;;5053302;28;20041;-81
2023/04/04 01:15:56;;;;;;;8.98;3.35;;;;;;;;;;5054416;28;20040;-81
2023/04/04 01:18:23;;;;;;;8.80;3.20;;;;;;;;;;5053425;28;20044;-81
2023/04/04 01:20:57;;;;;;;6.80;3.15;;;;;;;;;;5036743;28;20055;-81
2023/04/04 01:23:24;;;;;;;6.50;3.10;;;;;;;;;;5054376;28;20556;-81
2023/04/04 01:25:59;;;;;;;7.90;3.58;;;;;;;;;;5054634;28;20121;-81
2023/04/04 01:28:26;;;;;;;7.18;3.08;;;;;;;;;;5055067;28;20179;-81
2023/04/04 01:30:52;;;;;;;9.85;3.95;;;;;;;;;;5053673;28;20076;-81
2023/04/04 01:33:19;;;;;;;7.72;3.30;;;;;;;;;;5070950;28;20049;-81
2023/04/04 01:36:04;;;;;;;9.95;3.10;;;;;;;;;;5054761;28;20044;-81
2023/04/04 01:38:35;;;;;;;7.35;3.72;;;;;;;;;;5055679;28;20067;-81
2023/04/04 01:41:03;;;;;;;6.55;3.00;;;;;;;;;;5052689;28;20167;-81
2023/04/04 01:43:32;;;;;;;6.63;3.45;;;;;;;;;;5054488;28;20087;-81
2023/04/04 01:45:58;;;;;;;8.70;3.58;;;;;;;;;;5055334;28;20092;-81
2023/04/04 01:48:25;;;;;;;9.57;3.55;;;;;;;;;;5037722;28;20091;-81
2023/04/04 01:50:51;;;;;;;8.30;3.72;;;;;;;;;;5054157;28;20081;-81
2023/04/04 01:53:17;;;;;;;7.68;3.42;;;;;;;;;;5053361;28;20091;-81
2023/04/04 01:55:43;;;;;;;9.88;3.78;;;;;;;;;;5052702;28;20041;-81
2023/04/04 01:58:10;;;;;;;8.30;3.85;;;;;;;;;;5053556;28;20048;-81
2023/04/04 02:00:36;;;;;;;8.20;3.80;;;;;;;;;;5050164;28;20171;-81
2023/04/04 02:03:02;;;;;;;9.55;3.70;;;;;;;;;;5050161;28;20122;-81
2023/04/04 02:05:28;;;;;;;7.18;3.83;;;;;;;;;;5051042;28;20128;-81
2023/04/04 02:07:55;;;;;;;7.45;3.50;;;;;;;;;;5068358;28;20052;-81
2023/04/04 02:10:21;;;;;;;7.28;3.70;;;;;;;;;;5052440;28;20055;-81
2023/04/04 02:12:47;;;;;;;11.82;4.13;;;;;;;;;;5053357;28;20098;-81
2023/04/04 02:15:13;;;;;;;9.23;4.20;;;;;;;;;;5052914;28;20036;-81
2023/04/04 02:17:40;;;;;;;8.43;3.67;;;;;;;;;;5010885;28;20052;-81
2023/04/04 02:20:07;;;;;;;8.85;4.20;;;;;;;;;;5051579;28;20052;-81
2023/04/04 02:22:33;;;;;;;10.90;3.78;;;;;;;;;;5052144;28;20060;-81
2023/04/04 02:25:01;;;;;;;8.98;4.10;;;;;;;;;;5068250;28;20041;-81
2023/04/04 02:27:27;;;;;;;8.30;3.80;;;;;;;;;;5053504;28;20115;-81
2023/04/04 02:29:54;;;;;;;9.60;4.35;;;;;;;;;;5051873;28;20049;-81
2023/04/04 02:32:20;;;;;;;12.38;4.35;;;;;;;;;;5051521;28;20083;-80
2023/04/04 02:34:46;;;;;;;11.05;4.80;;;;;;;;;;5052847;28;20053;-81
2023/04/04 02:37:13;;;;;;;9.38;4.20;;;;;;;;;;5051454;28;20040;-81
2023/04/04 02:39:39;;;;;;;9.98;4.55;;;;;;;;;;5051739;28;20371;-81
2023/04/04 02:42:05;;;;;;;10.27;4.40;;;;;;;;;;5051420;28;20044;-81
2023/04/04 02:44:31;;;;;;;9.07;4.75;;;;;;;;;;5052922;28;20041;-81
2023/04/04 02:46:57;;;;;;;13.80;5.13;;;;;;;;;;5052907;28;20128;-81
2023/04/04 02:49:23;;;;;;;8.38;4.55;;;;;;;;;;5050755;28;20095;-81
2023/04/04 02:51:50;;;;;;;9.57;4.78;;;;;;;;;;5051747;28;20045;-81
2023/04/04 02:54:16;;;;;;;7.40;4.18;;;;;;;;;;5052343;28;20489;-81
2023/04/04 02:56:42;;;;;;;9.63;4.47;;;;;;;;;;5052608;28;20569;-81
2023/04/04 02:59:08;;;;;;;10.57;5.50;;;;;;;;;;5052385;28;20041;-81
2023/04/04 03:01:34;;;;;;;10.52;4.68;;;;;;;;;;5051728;28;20086;-81
2023/04/04 03:04:01;;;;;;;10.32;4.50;;;;;;;;;;5052354;28;20048;-81
2023/04/04 03:06:31;;;;;;;11.35;5.10;;;;;;;;;;5034673;28;20488;-81
2023/04/04 03:08:57;;;;;;;9.32;4.75;;;;;;;;;;5052453;28;20057;-81
2023/04/04 03:11:23;;;;;;;10.95;4.93;;;;;;;;;;5051041;28;20037;-81
2023/04/04 03:13:54;;;;;;;9.18;4.35;;;;;;;;;;5051257;28;20040;-81
2023/04/04 03:16:21;;;;;;;12.85;4.60;;;;;;;;;;5031089;28;20041;-81
2023/04/04 03:18:47;;;;;;;10.05;4.32;;;;;;;;;;5046684;28;20047;-81
2023/04/04 03:21:13;;;;;;;12.35;4.93;;;;;;;;;;5052123;28;20398;-81
2023/04/04 03:23:41;;;;;;;8.63;4.43;;;;;;;;;;5052700;28;20068;-81
2023/04/04 03:26:07;;;;;;;9.32;4.03;;;;;;;;;;5052191;28;20106;-81
2023/04/04 03:28:33;;;;;;;12.27;4.50;;;;;;;;;;5052138;28;20501;-81
2023/04/04 03:31:06;;;;;;;10.30;4.20;;;;;;;;;;5051708;28;20385;-81
2023/04/04 03:33:36;;;;;;;8.98;4.10;;;;;;;;;;5052222;28;20053;-81
2023/04/04 03:36:03;;;;;;;10.98;4.32;;;;;;;;;;5035500;28;20045;-81
2023/04/04 03:38:29;;;;;;;8.52;4.43;;;;;;;;;;5051142;28;20036;-81
2023/04/04 03:41:02;;;;;;;9.55;4.15;;;;;;;;;;5050847;28;20045;-81
2023/04/04 03:43:29;;;;;;;10.23;4.53;;;;;;;;;;5050683;28;20045;-81
2023/04/04 03:45:59;;;;;;;8.40;4.63;;;;;;;;;;5050682;28;20074;-81
2023/04/04 03:48:26;;;;;;;10.20;4.50;;;;;;;;;;5050680;28;20056;-81
2023/04/04 03:50:52;;;;;;;8.18;4.47;;;;;;;;;;5050796;28;20044;-81
2023/04/04 03:53:18;;;;;;;10.73;5.30;;;;;;;;;;5050288;28;20052;-81
2023/04/04 03:55:44;;;;;;;9.13;4.82;;;;;;;;;;5051800;28;20040;-81
2023/04/04 03:58:10;;;;;;;11.50;5.63;;;;;;;;;;5051517;28;20048;-81
2023/04/04 04:00:36;;;;;;;10.55;5.10;;;;;;;;;;5050111;28;20069;-81
2023/04/04 04:03:02;;;;;;;10.75;4.47;;;;;;;;;;5038897;28;20037;-81
2023/04/04 04:05:28;;;;;;;9.50;4.45;;;;;;;;;;5052893;28;21672;-81
2023/04/04 04:07:55;;;;;;;10.32;5.13;;;;;;;;;;5054634;28;20075;-81
2023/04/04 04:10:21;;;;;;;10.27;4.72;;;;;;;;;;5054084;28;20045;-81
2023/04/04 04:12:47;;;;;;;11.30;4.63;;;;;;;;;;5054459;28;20049;-81
2023/04/04 04:15:13;;;;;;;10.63;4.95;;;;;;;;;;5055271;28;20094;-81
2023/04/04 04:17:39;;;;;;;12.85;4.70;;;;;;;;;;5054305;28;20040;-81
2023/04/04 04:20:09;;;;;;;9.90;4.68;;;;;;;;;;5054398;28;20041;-81
2023/04/04 04:22:35;;;;;;;6.65;3.83;;;;;;;;;;5053841;28;20068;-81
2023/04/04 04:25:01;;;;;;;8.98;4.47;;;;;;;;;;5054216;28;20066;-81
2023/04/04 04:27:29;;;;;;;8.40;4.80;;;;;;;;;;5054876;28;20040;-81
2023/04/04 04:29:55;;;;;;;9.25;4.88;;;;;;;;;;5054095;28;20041;-81
2023/04/04 04:32:21;;;;;;;8.27;4.40;;;;;;;;;;5054674;28;20056;-81
2023/04/04 04:34:47;;;;;;;9.20;4.13;;;;;;;;;;5071063;28;20045;-81
2023/04/04 04:37:13;;;;;;;11.73;5.38;;;;;;;;;;5054173;28;20045;-81
2023/04/04 04:39:40;;;;;;;10.02;5.13;;;;;;;;;;5054461;28;20052;-81
2023/04/04 04:42:06;;;;;;;9.43;4.30;;;;;;;;;;5053831;28;20084;-81
2023/04/04 04:44:32;;;;;;;8.98;4.38;;;;;;;;;;5055166;28;20125;-81
2023/04/04 04:46:58;;;;;;;10.90;4.70;;;;;;;;;;5054105;28;20127;-81
2023/04/04 04:49:24;;;;;;;10.77;5.35;;;;;;;;;;5053384;28;20033;-81
2023/04/04 04:51:50;;;;;;;9.98;4.57;;;;;;;;;;5037559;28;20119;-80
2023/04/04 04:54:16;;;;;;;10.57;4.45;;;;;;;;;;5053439;28;20120;-81
2023/04/04 04:56:45;;;;;;;13.05;5.13;;;;;;;;;;5054594;28;20044;-81
2023/04/04 04:59:11;;;;;;;10.88;5.43;;;;;;;;;;5054147;28;20541;-81
2023/04/04 05:01:38;;;;;;;17.48;5.38;;;;;;;;;;5043680;28;20053;-80
2023/04/04 05:04:04;;;;;;;12.43;5.43;;;;;;;;;;5055031;28;20040;-81
2023/04/04 05:06:30;;;;;;;9.20;4.82;;;;;;;;;;5053336;28;20389;-80
2023/04/04 05:08:56;;;;;;;8.60;4.53;;;;;;;;;;5054655;28;20049;-81
2023/04/04 05:11:22;;;;;;;13.38;5.47;;;;;;;;;;5053526;28;20385;-80
2023/04/04 05:13:48;;;;;;;11.13;4.88;;;;;;;;;;5054052;28;20045;-80
2023/04/04 05:16:15;;;;;;;13.93;5.57;;;;;;;;;;5053074;28;20033;-81
2023/04/04 05:18:41;;;;;;;12.93;5.15;;;;;;;;;;5053181;28;20118;-81
2023/04/04 05:21:07;;;;;;;10.32;5.53;;;;;;;;;;5053412;28;20045;-81
2023/04/04 05:23:33;;;;;;;12.00;5.50;;;;;;;;;;5054269;28;20037;-80
2023/04/04 05:26:00;;;;;;;10.60;5.30;;;;;;;;;;5053198;28;20442;-80
2023/04/04 05:28:26;;;;;;;13.20;6.10;;;;;;;;;;5052870;28;20049;-81
2023/04/04 05:30:53;;;;;;;12.57;5.70;;;;;;;;;;5070300;28;20505;-81
2023/04/04 05:33:19;;;;;;;10.77;5.78;;;;;;;;;;5054112;28;20056;-81
2023/04/04 05:35:45;;;;;;;11.05;6.05;;;;;;;;;;5036096;28;20049;-81
2023/04/04 05:38:12;;;;;;;10.35;5.00;;;;;;;;;;5070103;28;20044;-81
2023/04/04 05:40:38;;;;;;;8.60;4.90;;;;;;;;;;5053934;28;20052;-82
2023/04/04 05:43:04;;;;;;;11.52;4.28;;;;;;;;;;5052666;28;20094;-81
2023/04/04 05:45:30;;;;;;;9.38;4.47;;;;;;;;;;5052751;28;20500;-81
2023/04/04 05:47:56;;;;;;;8.93;4.25;;;;;;;;;;5053880;28;20044;-81
2023/04/04 05:50:23;;;;;;;8.55;4.07;;;;;;;;;;5052604;28;20041;-81
2023/04/04 05:52:49;;;;;;;8.57;4.93;;;;;;;;;;5052582;28;20064;-81
2023/04/04 05:55:15;;;;;;;10.48;5.10;;;;;;;;;;5052623;28;20044;-81
2023/04/04 05:57:48;;;;;;;9.98;5.35;;;;;;;;;;5052663;28;20036;-81
2023/04/04 06:00:14;;;;;;;10.25;5.53;;;;;;;;;;5036153;28;20041;-81
2023/04/04 06:02:41;;;;;;;8.18;5.03;;;;;;;;;;5045607;28;20568;-81
2023/04/04 06:05:07;;;;;;;9.77;5.43;;;;;;;;;;5052472;28;20400;-81
2023/04/04 06:07:33;;;;;;;10.98;6.22;;;;;;;;;;5052243;28;20048;-81
2023/04/04 06:10:00;;;;;;;11.88;5.72;;;;;;;;;;5052402;28;20402;-81
2023/04/04 06:12:26;;;;;;;14.27;6.55;;;;;;;;;;5053467;28;20040;-82
2023/04/04 06:14:52;;;;;;;11.85;6.20;;;;;;;;;;5035602;28;20051;-82
2023/04/04 06:17:18;;;;;;;11.55;5.95;;;;;;;;;;5053495;28;20047;-82
2023/04/04 06:19:44;;;;;;;13.70;6.28;;;;;;;;;;5051954;28;20517;-82
2023/04/04 06:22:10;;;;;;;13.30;5.53;;;;;;;;;;5052459;28;20045;-81
2023/04/04 06:24:36;;;;;;;10.93;6.10;;;;;;;;;;5051942;28;20483;-82
2023/04/04 06:27:02;;;;;;;11.02;5.80;;;;;;;;;;5051845;28;20064;-82
2023/04/04 06:29:29;;;;;;;10.05;5.43;;;;;;;;;;5051474;28;20051;-82
2023/04/04 06:31:56;;;;;;;9.98;4.88;;;;;;;;;;5052127;28;20117;-82
2023/04/04 06:34:24;;;;;;;8.85;4.85;;;;;;;;;;5052798;28;20102;-82
2023/04/04 06:36:50;;;;;;;11.10;4.55;;;;;;;;;;5051859;28;20051;-82
2023/04/04 06:39:16;;;;;;;7.07;4.30;;;;;;;;;;5052012;28;20045;-83
2023/04/04 06:41:42;;;;;;;10.85;4.55;;;;;;;;;;5051369;28;20123;-83
2023/04/04 06:44:08;;;;;;;7.10;3.85;;;;;;;;;;5051908;28;20041;-83
2023/04/04 06:46:38;;;;;;;7.43;4.25;;;;;;;;;;5052678;28;20079;-83
2023/04/04 06:49:04;;;;;;;6.75;3.47;;;;;;;;;;5052038;28;20052;-83
2023/04/04 06:51:30;;;;;;;6.60;4.32;;;;;;;;;;5052701;28;20120;-83
2023/04/04 06:53:57;;;;;;;7.13;3.38;;;;;;;;;;5068548;28;20089;-83
2023/04/04 06:56:23;;;;;;;8.10;3.70;;;;;;;;;;5051677;28;20049;-83
2023/04/04 06:58:49;;;;;;;7.88;3.90;;;;;;;;;;5051081;28;20087;-83
2023/04/04 07:01:15;;;;;;;9.25;4.50;;;;;;;;;;5028472;28;20045;-83
2023/04/04 07:03:43;;;;;;;6.03;3.28;;;;;;;;;;5049562;28;20045;-83
2023/04/04 07:06:09;;;;;;;6.80;3.40;;;;;;;;;;5051465;28;20049;-83
2023/04/04 07:08:36;;;;;;;7.65;3.72;;;;;;;;;;5050844;28;20099;-83
2023/04/04 07:11:02;;;;;;;6.05;3.90;;;;;;;;;;5068532;28;20102;-83
2023/04/04 07:13:28;;;;;;;7.10;3.50;;;;;;;;;;5037289;28;20072;-83
2023/04/04 07:15:55;;;;;;;7.07;3.42;;;;;;;;;;5050587;28;20047;-82
2023/04/04 07:18:21;;;;;;;7.05;3.33;;;;;;;;;;5051097;28;20076;-83
2023/04/04 07:20:47;;;;;;;7.30;3.40;;;;;;;;;;5051175;28;20060;-83
2023/04/04 07:23:14;;;;;;;7.00;3.50;;;;;;;;;;5052504;28;20037;-83
2023/04/04 07:25:40;;;;;;;6.20;3.40;;;;;;;;;;5052008;28;20041;-83
2023/04/04 07:28:06;;;;;;;6.55;3.20;;;;;;;;;;5051009;28;20086;-83
2023/04/04 07:30:32;;;;;;;5.82;3.25;;;;;;;;;;5052563;28;20526;-83
2023/04/04 07:33:00;;;;;;;7.35;3.47;;;;;;;;;;5050836;28;20171;-82
2023/04/04 07:35:26;;;;;;;6.53;3.25;;;;;;;;;;5051414;28;20086;-83
2023/04/04 07:37:52;;;;;;;6.57;3.47;;;;;;;;;;5051104;28;20090;-83
2023/04/04 07:40:18;;;;;;;6.55;3.38;;;;;;;;;;5051973;28;20381;-83
2023/04/04 07:42:45;;;;;;;6.95;3.33;;;;;;;;;;5050693;28;20037;-83
2023/04/04 07:45:11;;;;;;;6.57;3.30;;;;;;;;;;5051253;28;20043;-83
2023/04/04 07:47:41;;;;;;;6.78;3.40;;;;;;;;;;5050481;28;20056;-83
2023/04/04 07:50:08;;;;;;;7.78;3.00;;;;;;;;;;5050843;28;20627;-83
2023/04/04 07:52:34;;;;;;;5.75;2.95;;;;;;;;;;5050995;28;20064;-83
2023/04/04 07:55:02;;;;;;;6.53;3.10;;;;;;;;;;5051698;28;20041;-84
2023/04/04 07:57:28;;;;;;;4.43;2.65;;;;;;;;;;5050771;28;20045;-83
2023/04/04 07:59:54;;;;;;;9.07;3.30;;;;;;;;;;5034133;28;20041;-84
2023/04/04 08:02:20;;;;;;;5.70;2.50;;;;;;;;;;5049852;28;20401;-84
2023/04/04 08:04:46;;;;;;;5.50;3.05;;;;;;;;;;5067098;28;20102;-83
2023/04/04 08:07:12;;;;;;;7.47;3.17;;;;;;;;;;5051883;28;20068;-84
2023/04/04 08:09:38;;;;;;;6.18;3.00;;;;;;;;;;5050229;28;20041;-83
2023/04/04 08:12:05;;;;;;;5.63;3.00;;;;;;;;;;5051662;28;20151;-84
2023/04/04 08:14:31;;;;;;;9.07;3.20;;;;;;;;;;5052236;28;20078;-83
2023/04/04 08:16:57;;;;;;;6.70;2.90;;;;;;;;;;5050355;28;20497;-83
2023/04/04 08:19:23;;;;;;;6.00;2.78;;;;;;;;;;5050693;28;20485;-84
2023/04/04 08:21:50;;;;;;;5.15;2.63;;;;;;;;;;5050586;28;20554;-84
2023/04/04 08:24:16;;;;;;;5.85;2.70;;;;;;;;;;5051856;28;20044;-83
2023/04/04 08:26:42;;;;;;;5.97;2.67;;;;;;;;;;5050325;28;20040;-84
2023/04/04 08:29:09;;;;;;;5.55;2.60;;;;;;;;;;5050229;28;20064;-83
2023/04/04 08:31:35;;;;;;;5.75;2.58;;;;;;;;;;5050695;28;20048;-83
2023/04/04 08:34:01;;;;;;;6.32;2.40;;;;;;;;;;5049973;28;20158;-83
2023/04/04 08:36:28;;;;;;;7.50;2.70;;;;;;;;;;5051598;28;20037;-83
2023/04/04 08:38:54;;;;;;;7.60;2.92;;;;;;;;;;5051326;28;20048;-84
2023/04/04 08:41:20;;;;;;;4.88;2.45;;;;;;;;;;5050558;28;20043;-83
2023/04/04 08:43:53;;;;;;;5.40;2.40;;;;;;;;;;5050117;28;20045;-83
2023/04/04 08:46:21;;;;;;;5.15;2.20;;;;;;;;;;5051559;28;20048;-82
2023/04/04 08:48:47;;;;;;;4.45;2.30;;;;;;;;;;5051944;28;20125;-82
2023/04/04 08:51:13;;;;;;;5.28;2.35;;;;;;;;;;5070806;28;20087;-82
2023/04/04 08:53:39;;;;;;;5.25;1.88;;;;;;;;;;5054132;28;20051;-82
2023/04/04 08:56:06;;;;;;;4.28;2.03;;;;;;;;;;5054075;28;20127;-82
2023/04/04 08:58:32;;;;;;;5.78;2.17;;;;;;;;;;5055535;28;20094;-82
2023/04/04 09:00:58;;;;;;;4.35;1.90;;;;;;;;;;5053973;28;20051;-82
2023/04/04 09:03:25;;;;;;;4.50;1.88;;;;;;;;;;5037980;28;20041;-82
2023/04/04 09:05:52;;;;;;;5.68;2.25;;;;;;;;;;5054418;28;20124;-83
2023/04/04 09:08:18;;;;;;;4.45;1.85;;;;;;;;;;5056785;28;20048;-83
2023/04/04 09:10:45;;;;;;;4.18;2.03;;;;;;;;;;5054517;28;20044;-83
2023/04/04 09:13:11;;;;;;;7.07;1.95;;;;;;;;;;5053900;28;20037;-82
2023/04/04 09:15:38;;;;;;;4.43;1.77;;;;;;;;;;5055031;28;20041;-83
2023/04/04 09:18:04;;;;;;;3.75;1.90;;;;;;;;;;5053585;28;20056;-82
2023/04/04 09:20:37;;;;;;;4.93;1.98;;;;;;;;;;5054070;28;20069;-83
2023/04/04 09:23:11;;;;;;;6.28;2.00;;;;;;;;;;5054995;28;20041;-84
2023/04/04 09:25:37;;;;;;;3.63;1.88;;;;;;;;;;5053720;28;20048;-84
2023/04/04 09:28:04;;;;;;;5.25;1.98;;;;;;;;;;5053282;28;20055;-84
2023/04/04 09:30:37;;;;;;;5.30;1.77;;;;;;;;;;5070616;28;20048;-84
2023/04/04 09:33:04;;;;;;;4.05;1.70;;;;;;;;;;5053220;28;20434;-84
2023/04/04 09:35:32;;;;;;;3.95;1.60;;;;;;;;;;5054637;28;20517;-85
2023/04/04 09:37:58;;;;;;;5.22;2.28;;;;;;;;;;5050394;28;20041;-82
2023/04/04 09:40:26;;;;;;;5.40;1.75;;;;;;;;;;5036702;28;20049;-83
2023/04/04 09:42:54;;;;;;;4.60;1.80;;;;;;;;;;5054472;28;20045;-83
2023/04/04 09:45:23;;;;;;;5.18;1.80;;;;;;;;;;5054970;28;20037;-83
2023/04/04 09:47:49;;;;;;;3.60;1.60;;;;;;;;;;5054541;28;20120;-83
2023/04/04 09:50:20;;;;;;;4.57;1.92;;;;;;;;;;5052790;28;20052;-83
2023/04/04 09:52:48;;;;;;;4.32;1.80;;;;;;;;;;5053240;28;20049;-83
2023/04/04 09:55:14;;;;;;;3.97;1.90;;;;;;;;;;5036445;28;20389;-83
2023/04/04 09:57:41;;;;;;;5.28;2.30;;;;;;;;;;5053323;28;20085;-83
2023/04/04 10:00:08;;;;;;;4.25;2.20;;;;;;;;;;5035475;28;20045;-83
2023/04/04 10:02:36;;;;;;;4.38;1.85;;;;;;;;;;5044383;28;20056;-83
2023/04/04 10:05:06;;;;;;;6.00;2.40;;;;;;;;;;5052070;28;20044;-82
2023/04/04 10:07:32;;;;;;;4.38;2.20;;;;;;;;;;5036080;28;20043;-83
2023/04/04 10:10:04;;;;;;;4.43;2.30;;;;;;;;;;5035637;28;20056;-83
2023/04/04 10:12:30;;;;;;;4.38;2.13;;;;;;;;;;5053786;28;20073;-82
2023/04/04 10:14:56;;;;;;;5.85;2.40;;;;;;;;;;5052328;28;20044;-82
2023/04/04 10:17:24;;;;;;;4.40;2.40;;;;;;;;;;5050128;28;20041;-82
2023/04/04 10:19:51;;;;;;;5.60;2.42;;;;;;;;;;5052248;28;20048;-82
2023/04/04 10:22:19;;;;;;;3.63;1.90;;;;;;;;;;5052624;28;20452;-83
2023/04/04 10:24:47;;;;;;;7.05;2.40;;;;;;;;;;5052604;28;20051;-82
2023/04/04 10:27:13;;;;;;;4.68;2.10;;;;;;;;;;5051607;28;20048;-83
2023/04/04 10:29:39;;;;;;;6.20;2.03;;;;;;;;;;5051743;28;20052;-83
2023/04/04 10:32:07;;;;;;;5.20;2.05;;;;;;;;;;5051925;28;20037;-82
2023/04/04 10:34:44;;;;;;;5.78;2.20;;;;;;;;;;5051828;28;20122;-82
2023/04/04 10:37:15;;;;;;;3.92;2.20;;;;;;;;;;5052141;28;20041;-82
2023/04/04 10:39:47;;;;;;;5.72;2.22;;;;;;;;;;5052080;28;20053;-83
2023/04/04 10:42:15;;;;;;;4.35;2.35;;;;;;;;;;5051750;28;20124;-83
2023/04/04 10:44:42;;;;;;;4.57;2.20;;;;;;;;;;5052930;28;20553;-83
2023/04/04 10:47:16;;;;;;;5.10;2.47;;;;;;;;;;5051906;28;20558;-83
2023/04/04 10:49:46;;;;;;;6.17;2.27;;;;;;;;;;5052468;28;20080;-83
2023/04/04 10:52:13;;;;;;;4.55;2.42;;;;;;;;;;5038799;28;20087;-83
2023/04/04 10:54:41;;;;;;;4.60;2.50;;;;;;;;;;5051805;28;20049;-83
2023/04/04 10:57:07;;;;;;;3.97;2.00;;;;;;;;;;5051565;28;20044;-83
2023/04/04 10:59:33;;;;;;;4.80;2.35;;;;;;;;;;5052972;28;20048;-83
2023/04/04 11:02:00;;;;;;;3.85;2.08;;;;;;;;;;5042283;28;20040;-83
2023/04/04 11:04:33;;;;;;;5.32;2.25;;;;;;;;;;5051818;28;20128;-83
2023/04/04 11:07:13;;;;;;;3.53;2.13;;;;;;;;;;5051678;28;20415;-83
2023/04/04 11:09:53;;;;;;;3.45;2.05;;;;;;;;;;5051363;28;20048;-82
2023/04/04 11:12:22;;;;;;;4.50;2.10;;;;;;;;;;5050710;28;20080;-82
2023/04/04 11:14:55;;;;;;;4.60;2.28;;;;;;;;;;5051764;28;20102;-82
2023/04/04 11:17:42;;;;;;;5.97;2.25;;;;;;;;;;5051502;28;20505;-83
2023/04/04 11:20:14;;;;;;;4.43;2.00;;;;;;;;;;5052409;28;20057;-83
2023/04/04 11:22:41;;;;;;;4.55;2.30;;;;;;;;;;5052862;28;20565;-83
2023/04/04 11:25:26;;;;;;;4.30;2.15;;;;;;;;;;5031432;28;20053;-82
2023/04/04 11:27:58;;;;;;;4.43;2.23;;;;;;;;;;5045962;28;20553;-83
2023/04/04 11:30:25;;;;;;;6.32;2.45;;;;;;;;;;5052097;28;20087;-82
2023/04/04 11:32:51;;;;;;;4.78;2.25;;;;;;;;;;5052464;28;20116;-83
2023/04/04 11:35:17;;;;;;;5.30;2.05;;;;;;;;;;5051801;28;20371;-82
2023/04/04 11:37:53;;;;;;;5.95;2.30;;;;;;;;;;5052241;28;20045;-82
2023/04/04 11:40:19;;;;;;;4.53;2.10;;;;;;;;;;5051807;28;20037;-82
2023/04/04 11:42:51;;;;;;;4.43;2.47;;;;;;;;;;5051160;28;20041;-82
2023/04/04 11:45:24;;;;;;;5.85;2.80;;;;;;;;;;5033728;28;20048;-82
2023/04/04 11:47:51;;;;;;;5.18;2.25;;;;;;;;;;5044190;28;20130;-82
2023/04/04 11:50:19;;;;;;;5.00;2.20;;;;;;;;;;5055726;28;20056;-82
2023/04/04 11:52:45;;;;;;;3.67;2.33;;;;;;;;;;5051095;28;20077;-82
2023/04/04 11:55:19;;;;;;;4.15;2.20;;;;;;;;;;5050491;28;20063;-82
2023/04/04 11:57:52;;;;;;;5.30;2.38;;;;;;;;;;5052365;28;20029;-82
2023/04/04 12:00:28;;;;;;;3.95;2.47;;;;;;;;;;5051247;28;20106;-82
2023/04/04 12:02:54;;;;;;;4.47;2.30;;;;;;;;;;5050820;28;20056;-82
2023/04/04 12:05:22;;;;;;;5.55;2.22;;;;;;;;;;5050383;28;20394;-82
2023/04/04 12:07:50;;;;;;;4.28;2.40;;;;;;;;;;5051865;28;20052;-82
2023/04/04 12:10:16;;;;;;;4.80;2.33;;;;;;;;;;5051377;28;20048;-82
2023/04/04 12:12:44;;;;;;;5.22;2.53;;;;;;;;;;5050450;28;20037;-82
2023/04/04 12:15:13;;;;;;;8.07;2.80;;;;;;;;;;5050538;28;20500;-82
2023/04/04 12:17:44;;;;;;;5.05;2.50;;;;;;;;;;5050615;28;20497;-82
2023/04/04 12:20:10;;;;;;;6.90;2.50;;;;;;;;;;5051699;28;20037;-82
2023/04/04 12:22:37;;;;;;;5.82;2.50;;;;;;;;;;5050295;28;20124;-82
2023/04/04 12:25:05;;;;;;;4.68;2.28;;;;;;;;;;5053509;28;20052;-82
2023/04/04 12:27:31;;;;;;;6.03;2.72;;;;;;;;;;5055268;28;20443;-82
2023/04/04 12:29:59;;;;;;;4.13;2.30;;;;;;;;;;5055402;28;20052;-82
2023/04/04 12:32:26;;;;;;;4.28;2.20;;;;;;;;;;5070939;28;20045;-82
2023/04/04 12:34:53;;;;;;;6.30;2.70;;;;;;;;;;5055445;28;20049;-82
2023/04/04 12:37:21;;;;;;;4.65;2.30;;;;;;;;;;5054861;28;20041;-82
2023/04/04 12:39:48;;;;;;;6.00;2.30;;;;;;;;;;5037593;28;20086;-82
2023/04/04 12:42:21;;;;;;;5.57;2.70;;;;;;;;;;5055237;28;20166;-82
2023/04/04 12:44:49;;;;;;;3.90;2.17;;;;;;;;;;5054016;28;20045;-82
2023/04/04 12:47:16;;;;;;;5.53;2.38;;;;;;;;;;5053578;28;20044;-82
2023/04/04 12:49:43;;;;;;;4.15;2.28;;;;;;;;;;5037089;28;20102;-82
2023/04/04 12:52:17;;;;;;;4.57;2.38;;;;;;;;;;5055099;28;20079;-82
2023/04/04 12:54:43;;;;;;;3.97;2.35;;;;;;;;;;5055082;28;20033;-81
2023/04/04 12:57:11;;;;;;;6.90;2.70;;;;;;;;;;5055232;28;20137;-81
2023/04/04 12:59:38;;;;;;;3.88;2.33;;;;;;;;;;5054720;28;20544;-82
2023/04/04 13:02:11;;;;;;;4.82;2.40;;;;;;;;;;5044974;28;20045;-82
2023/04/04 13:04:38;;;;;;;4.28;2.40;;;;;;;;;;5036877;28;20048;-82
2023/04/04 13:07:04;;;;;;;6.20;2.70;;;;;;;;;;5053669;28;20505;-82
2023/04/04 13:09:31;;;;;;;4.20;2.35;;;;;;;;;;5036463;28;20051;-81
2023/04/04 13:11:58;;;;;;;5.63;2.45;;;;;;;;;;5070228;28;20037;-81
2023/04/04 13:14:24;;;;;;;4.68;2.40;;;;;;;;;;5053288;28;20123;-81
2023/04/04 13:17:04;;;;;;;4.90;2.75;;;;;;;;;;5054594;28;20037;-82
2023/04/04 13:19:30;;;;;;;5.65;2.75;;;;;;;;;;5039061;28;20099;-82
2023/04/04 13:21:57;;;;;;;4.88;2.65;;;;;;;;;;5053314;28;20045;-81
2023/04/04 13:24:23;;;;;;;5.60;2.67;;;;;;;;;;5052820;28;20063;-82
2023/04/04 13:26:49;;;;;;;5.32;2.55;;;;;;;;;;5070092;28;20041;-82
2023/04/04 13:29:15;;;;;;;5.10;2.55;;;;;;;;;;5054456;28;20151;-82
2023/04/04 13:31:41;;;;;;;5.75;2.90;;;;;;;;;;5052802;28;20044;-81
2023/04/04 13:34:07;;;;;;;9.00;2.58;;;;;;;;;;5052935;28;20128;-81
2023/04/04 13:36:33;;;;;;;5.72;2.88;;;;;;;;;;5068575;28;20033;-81
2023/04/04 13:39:00;;;;;;;6.68;2.80;;;;;;;;;;5053173;28;20055;-81
2023/04/04 13:41:26;;;;;;;6.25;2.92;;;;;;;;;;5052738;28;20405;-81
2023/04/04 13:43:52;;;;;;;5.70;3.00;;;;;;;;;;5053547;28;20555;-81
2023/04/04 13:46:18;;;;;;;5.72;2.83;;;;;;;;;;5054226;28;20045;-81
2023/04/04 13:48:44;;;;;;;7.65;3.33;;;;;;;;;;5019902;28;20438;-81
2023/04/04 13:51:10;;;;;;;6.03;2.90;;;;;;;;;;5053380;28;20363;-81
2023/04/04 13:53:36;;;;;;;6.55;3.08;;;;;;;;;;5052641;28;20036;-81
2023/04/04 13:56:02;;;;;;;5.47;2.90;;;;;;;;;;5053133;28;20051;-81
2023/04/04 13:58:28;;;;;;;5.32;2.67;;;;;;;;;;5053759;28;20508;-81
2023/04/04 14:00:56;;;;;;;5.68;2.80;;;;;;;;;;5048176;28;20048;-81
2023/04/04 14:03:23;;;;;;;5.38;3.10;;;;;;;;;;5033897;28;20041;-81
2023/04/04 14:05:49;;;;;;;5.07;2.88;;;;;;;;;;5053398;28;20045;-81
2023/04/04 14:08:15;;;;;;;6.85;2.92;;;;;;;;;;5053041;28;20371;-81
2023/04/04 14:10:41;;;;;;;4.82;3.10;;;;;;;;;;5052657;28;20049;-81
2023/04/04 14:13:07;;;;;;;5.05;2.63;;;;;;;;;;5054084;28;20204;-81
2023/04/04 14:15:33;;;;;;;5.75;2.78;;;;;;;;;;5052304;28;20043;-81
2023/04/04 14:17:59;;;;;;;5.18;2.72;;;;;;;;;;5053929;28;20051;-81
2023/04/04 14:20:25;;;;;;;6.30;3.10;;;;;;;;;;5069124;28;20051;-81
2023/04/04 14:22:51;;;;;;;7.93;2.85;;;;;;;;;;5053719;28;20053;-81
2023/04/04 14:25:17;;;;;;;8.10;2.70;;;;;;;;;;5053403;28;20052;-81
2023/04/04 14:27:44;;;;;;;5.78;2.83;;;;;;;;;;5052148;28;20049;-81
2023/04/04 14:30:10;;;;;;;6.45;2.90;;;;;;;;;;5053144;28;20044;-81
2023/04/04 14:32:36;;;;;;;5.90;3.15;;;;;;;;;;5052913;28;20038;-81
2023/04/04 14:35:02;;;;;;;6.50;2.72;;;;;;;;;;5052334;28;20548;-81
2023/04/04 14:37:28;;;;;;;6.22;3.40;;;;;;;;;;5053337;28;20037;-81
2023/04/04 14:39:55;;;;;;;5.60;2.72;;;;;;;;;;5052298;28;20102;-81